YZV weather

Sept-Îles Airport
Sept-Îles, Quebec, Canada

Public forecast

Using degrees Celsius for public forecast. Weather courtesy of forecast.io.

Current aviation weather report (METAR) for Sept-Îles Airport

Retrieved 2019/10/15 19:00 UTC (56 minutes ago):

CYZV 151900Z 20008G15KT 30SM FEW050 09/05 A2988 RMK CU1 SLP123

Aviation forecast (TAF) for Sept-Îles Airport

Retrieved 2019/10/15 18:42 UTC (1 hour ago):

TAF TAF CYZV 151738Z 1518/1618 30010G20KT P6SM FEW030 BECMG 1518/1520 23010G20KT FM160300 27010KT P6SM SKC BECMG 1616/1618 21010KT SCT050 RMK NXT FCST BY 160000Z